createdAt,value
2023-05-17T00:00:53.177Z,1011.43
2023-05-17T00:03:25.909Z,1011.46
2023-05-17T00:05:59.330Z,1011.49
2023-05-17T00:08:33.411Z,1011.50
2023-05-17T00:11:06.774Z,1011.51
2023-05-17T00:13:40.030Z,1011.53
2023-05-17T00:16:13.568Z,1011.54
2023-05-17T00:18:47.392Z,1011.54
2023-05-17T00:21:21.169Z,1011.55
2023-05-17T00:23:53.996Z,1011.54
2023-05-17T00:26:30.802Z,1011.54
2023-05-17T00:29:04.073Z,1011.54
2023-05-17T00:31:37.388Z,1011.55
2023-05-17T00:34:11.091Z,1011.55
2023-05-17T00:36:44.452Z,1011.58
2023-05-17T00:39:17.214Z,1011.58
2023-05-17T00:41:50.187Z,1011.60
2023-05-17T00:44:22.860Z,1011.60
2023-05-17T00:46:56.229Z,1011.61
2023-05-17T00:49:29.134Z,1011.61
2023-05-17T00:52:02.432Z,1011.62
2023-05-17T00:54:36.076Z,1011.62
2023-05-17T00:57:09.130Z,1011.63
2023-05-17T00:59:42.077Z,1011.64
2023-05-17T01:02:15.188Z,1011.64
2023-05-17T01:04:48.374Z,1011.67
2023-05-17T01:07:22.205Z,1011.69
2023-05-17T01:09:55.249Z,1011.70
2023-05-17T01:12:28.237Z,1011.72
2023-05-17T01:15:00.976Z,1011.73
2023-05-17T01:17:34.142Z,1011.73
2023-05-17T01:22:40.327Z,1011.78
2023-05-17T01:25:13.307Z,1011.80
2023-05-17T01:27:46.208Z,1011.81
2023-05-17T01:30:19.244Z,1011.83
2023-05-17T01:32:52.084Z,1011.86
2023-05-17T01:35:24.896Z,1011.90
2023-05-17T01:37:58.427Z,1011.91
2023-05-17T01:40:31.200Z,1011.94
2023-05-17T01:43:04.229Z,1011.95
2023-05-17T01:45:36.982Z,1011.95
2023-05-17T01:48:10.295Z,1011.98
2023-05-17T01:50:43.325Z,1011.99
2023-05-17T01:53:16.460Z,1012.00
2023-05-17T01:55:51.312Z,1012.01
2023-05-17T01:58:24.202Z,1012.01
2023-05-17T02:00:57.181Z,1012.03
2023-05-17T02:03:31.286Z,1012.02
2023-05-17T02:06:04.274Z,1012.05
2023-05-17T02:08:37.605Z,1012.07
2023-05-17T02:11:11.230Z,1012.08
2023-05-17T02:13:44.477Z,1012.09
2023-05-17T02:16:18.279Z,1012.11
2023-05-17T02:18:51.527Z,1012.12
2023-05-17T02:21:24.227Z,1012.13
2023-05-17T02:23:57.319Z,1012.14
2023-05-17T02:26:31.322Z,1012.13
2023-05-17T02:29:04.273Z,1012.14
2023-05-17T02:31:37.336Z,1012.16
2023-05-17T02:34:10.282Z,1012.17
2023-05-17T02:36:43.126Z,1012.18
2023-05-17T02:39:16.520Z,1012.18
2023-05-17T02:41:49.477Z,1012.19
2023-05-17T02:44:23.154Z,1012.21
2023-05-17T02:46:56.516Z,1012.23
2023-05-17T02:49:30.327Z,1012.24
2023-05-17T02:52:03.006Z,1012.25
2023-05-17T02:54:36.625Z,1012.27
2023-05-17T02:57:10.050Z,1012.30
2023-05-17T02:59:43.597Z,1012.32
2023-05-17T03:02:17.439Z,1012.34
2023-05-17T03:05:04.310Z,1012.37
2023-05-17T03:07:37.097Z,1012.36
2023-05-17T03:10:10.139Z,1012.39
2023-05-17T03:12:43.173Z,1012.41
2023-05-17T03:15:16.394Z,1012.43
2023-05-17T03:17:49.557Z,1012.45
2023-05-17T03:20:22.412Z,1012.48
2023-05-17T03:22:55.546Z,1012.48
2023-05-17T03:25:29.443Z,1012.52
2023-05-17T03:28:02.246Z,1012.53
2023-05-17T03:30:35.357Z,1012.53
2023-05-17T03:33:08.413Z,1012.54
2023-05-17T03:35:41.494Z,1012.57
2023-05-17T03:38:14.377Z,1012.59
2023-05-17T03:40:47.637Z,1012.60
2023-05-17T03:43:20.444Z,1012.62
2023-05-17T03:45:53.489Z,1012.64
2023-05-17T03:48:26.556Z,1012.65
2023-05-17T03:50:59.348Z,1012.65
2023-05-17T03:53:32.153Z,1012.68
2023-05-17T03:56:05.225Z,1012.69
2023-05-17T03:58:38.139Z,1012.70
2023-05-17T04:01:11.448Z,1012.71
2023-05-17T04:03:44.491Z,1012.71
2023-05-17T04:06:17.270Z,1012.73
2023-05-17T04:08:50.270Z,1012.73
2023-05-17T04:11:23.646Z,1012.75
2023-05-17T04:13:56.268Z,1012.76
2023-05-17T04:16:29.165Z,1012.79
2023-05-17T04:19:02.298Z,1012.80
2023-05-17T04:21:35.169Z,1012.81
2023-05-17T04:24:08.248Z,1012.82
2023-05-17T04:26:41.473Z,1012.85
2023-05-17T04:29:14.334Z,1012.87
2023-05-17T04:31:47.298Z,1012.88
2023-05-17T04:34:20.199Z,1012.90
2023-05-17T04:36:53.269Z,1012.92
2023-05-17T04:39:26.551Z,1012.93
2023-05-17T04:41:59.638Z,1012.95
2023-05-17T04:44:32.192Z,1012.96
2023-05-17T04:47:05.324Z,1012.97
2023-05-17T04:49:38.198Z,1013.00
2023-05-17T04:52:11.406Z,1013.03
2023-05-17T04:54:44.323Z,1013.07
2023-05-17T04:57:17.422Z,1013.10
2023-05-17T04:59:50.616Z,1013.13
2023-05-17T05:02:23.512Z,1013.16
2023-05-17T05:04:56.548Z,1013.18
2023-05-17T05:07:29.558Z,1013.21
2023-05-17T05:10:02.331Z,1013.24
2023-05-17T05:12:35.307Z,1013.26
2023-05-17T05:15:08.560Z,1013.28
2023-05-17T05:17:41.606Z,1013.30
2023-05-17T05:20:14.306Z,1013.33
2023-05-17T05:22:47.267Z,1013.36
2023-05-17T05:25:20.629Z,1013.41
2023-05-17T05:27:54.615Z,1013.45
2023-05-17T05:30:27.676Z,1013.49
2023-05-17T05:33:00.777Z,1013.54
2023-05-17T05:35:33.465Z,1013.57
2023-05-17T05:38:06.378Z,1013.57
2023-05-17T05:40:39.575Z,1013.59
2023-05-17T05:43:12.743Z,1013.62
2023-05-17T05:45:45.587Z,1013.63
2023-05-17T05:48:18.816Z,1013.66
2023-05-17T05:50:51.788Z,1013.69
2023-05-17T05:53:25.649Z,1013.71
2023-05-17T05:55:58.429Z,1013.72
2023-05-17T05:58:31.790Z,1013.73
2023-05-17T06:01:06.344Z,1013.75
2023-05-17T06:03:37.605Z,1013.77
2023-05-17T06:06:10.785Z,1013.79
2023-05-17T06:08:43.619Z,1013.81
2023-05-17T06:11:16.640Z,1013.84
2023-05-17T06:13:49.827Z,1013.85
2023-05-17T06:16:22.689Z,1013.87
2023-05-17T06:18:55.723Z,1013.89
2023-05-17T06:21:28.659Z,1013.92
2023-05-17T06:24:03.502Z,1013.96
2023-05-17T06:26:34.730Z,1013.99
2023-05-17T06:29:07.865Z,1014.02
2023-05-17T06:31:40.628Z,1014.06
2023-05-17T06:34:13.839Z,1014.09
2023-05-17T06:36:46.356Z,1014.12
2023-05-17T06:39:19.492Z,1014.17
2023-05-17T06:41:52.674Z,1014.18
2023-05-17T06:44:25.824Z,1014.19
2023-05-17T06:46:58.515Z,1014.21
2023-05-17T06:49:31.673Z,1014.22
2023-05-17T06:52:04.728Z,1014.23
2023-05-17T06:54:37.652Z,1014.25
2023-05-17T06:57:10.736Z,1014.26
2023-05-17T06:59:43.579Z,1014.29
2023-05-17T07:02:16.540Z,1014.32
2023-05-17T07:04:49.785Z,1014.33
2023-05-17T07:07:22.454Z,1014.36
2023-05-17T07:09:55.865Z,1014.38
2023-05-17T07:12:29.846Z,1014.39
2023-05-17T07:15:04.967Z,1014.42
2023-05-17T07:17:37.797Z,1014.44
2023-05-17T07:20:10.967Z,1014.47
2023-05-17T07:22:44.675Z,1014.48
2023-05-17T07:25:17.776Z,1014.49
2023-05-17T07:27:50.607Z,1014.51
2023-05-17T07:30:23.889Z,1014.52
2023-05-17T07:32:56.827Z,1014.54
2023-05-17T07:35:29.760Z,1014.55
2023-05-17T07:38:02.728Z,1014.55
2023-05-17T07:40:35.642Z,1014.54
2023-05-17T07:43:08.710Z,1014.54
2023-05-17T07:45:41.612Z,1014.54
2023-05-17T07:48:14.698Z,1014.54
2023-05-17T07:50:47.734Z,1014.55
2023-05-17T07:53:20.807Z,1014.55
2023-05-17T07:55:53.741Z,1014.55
2023-05-17T07:58:26.645Z,1014.56
2023-05-17T08:00:59.631Z,1014.56
2023-05-17T08:03:32.794Z,1014.56
2023-05-17T08:06:06.113Z,1014.55
2023-05-17T08:08:39.575Z,1014.56
2023-05-17T08:11:12.870Z,1014.55
2023-05-17T08:13:45.769Z,1014.56
2023-05-17T08:16:19.115Z,1014.57
2023-05-17T08:18:52.009Z,1014.58
2023-05-17T08:21:24.805Z,1014.58
2023-05-17T08:23:57.667Z,1014.59
2023-05-17T08:26:30.849Z,1014.60
2023-05-17T08:29:03.803Z,1014.59
2023-05-17T08:31:37.017Z,1014.58
2023-05-17T08:34:09.875Z,1014.57
2023-05-17T08:36:42.515Z,1014.56
2023-05-17T08:39:15.655Z,1014.56
2023-05-17T08:41:48.788Z,1014.53
2023-05-17T08:44:21.853Z,1014.53
2023-05-17T08:46:55.189Z,1014.52
2023-05-17T08:49:27.580Z,1014.49
2023-05-17T08:52:00.817Z,1014.48
2023-05-17T08:54:33.890Z,1014.46
2023-05-17T08:57:20.598Z,1014.45
2023-05-17T08:59:53.564Z,1014.45
2023-05-17T09:02:26.939Z,1014.44
2023-05-17T09:04:59.902Z,1014.43
2023-05-17T09:07:32.880Z,1014.41
2023-05-17T09:10:05.898Z,1014.40
2023-05-17T09:12:38.668Z,1014.38
2023-05-17T09:15:17.831Z,1014.36
2023-05-17T09:17:50.780Z,1014.36
2023-05-17T09:20:23.726Z,1014.36
2023-05-17T09:22:56.888Z,1014.36
2023-05-17T09:25:29.896Z,1014.35
2023-05-17T09:28:02.806Z,1014.37
2023-05-17T09:30:35.849Z,1014.37
2023-05-17T09:33:08.736Z,1014.39
2023-05-17T09:35:42.040Z,1014.41
2023-05-17T09:38:15.701Z,1014.42
2023-05-17T09:40:48.927Z,1014.43
2023-05-17T09:43:22.016Z,1014.43
2023-05-17T09:45:54.910Z,1014.43
2023-05-17T09:48:28.112Z,1014.43
2023-05-17T09:51:00.905Z,1014.45
2023-05-17T09:53:33.797Z,1014.45
2023-05-17T09:56:07.079Z,1014.46
2023-05-17T09:58:40.017Z,1014.46
2023-05-17T10:01:12.990Z,1014.45
2023-05-17T10:03:46.075Z,1014.45
2023-05-17T10:06:32.581Z,1014.45
2023-05-17T10:08:51.623Z,1014.45
2023-05-17T10:11:25.006Z,1014.46
2023-05-17T10:13:57.909Z,1014.45
2023-05-17T10:16:30.966Z,1014.44
2023-05-17T10:19:04.083Z,1014.43
2023-05-17T10:21:37.036Z,1014.41
2023-05-17T10:24:10.030Z,1014.38
2023-05-17T10:26:43.193Z,1014.35
2023-05-17T10:29:17.004Z,1014.33
2023-05-17T10:31:49.959Z,1014.31
2023-05-17T10:34:22.769Z,1014.30
2023-05-17T10:36:55.901Z,1014.29
2023-05-17T10:39:28.719Z,1014.27
2023-05-17T10:42:13.661Z,1014.26
2023-05-17T10:44:35.386Z,1014.26
2023-05-17T10:47:09.120Z,1014.27
2023-05-17T10:49:41.859Z,1014.27
2023-05-17T10:52:14.809Z,1014.26
2023-05-17T10:54:48.070Z,1014.24
2023-05-17T10:57:21.025Z,1014.23
2023-05-17T10:59:53.717Z,1014.21
2023-05-17T11:02:27.085Z,1014.21
2023-05-17T11:05:00.254Z,1014.21
2023-05-17T11:07:33.098Z,1014.21
2023-05-17T11:10:06.014Z,1014.20
2023-05-17T11:12:40.586Z,1014.18
2023-05-17T11:15:12.274Z,1014.16
2023-05-17T11:17:46.040Z,1014.14
2023-05-17T11:20:19.301Z,1014.13
2023-05-17T11:22:51.923Z,1014.12
2023-05-17T11:25:25.206Z,1014.10
2023-05-17T11:27:58.775Z,1014.10
2023-05-17T11:30:32.099Z,1014.11
2023-05-17T11:33:07.056Z,1014.11
2023-05-17T11:35:37.794Z,1014.11
2023-05-17T11:38:11.088Z,1014.11
2023-05-17T11:40:44.111Z,1014.10
2023-05-17T11:43:17.310Z,1014.10
2023-05-17T11:45:53.140Z,1014.09
2023-05-17T11:48:24.061Z,1014.09
2023-05-17T11:53:46.807Z,1014.09
2023-05-17T11:56:24.074Z,1014.09
2023-05-17T11:58:53.099Z,1014.10
2023-05-17T12:01:26.146Z,1014.09
2023-05-17T12:03:59.089Z,1014.07
2023-05-17T12:06:32.001Z,1014.05
2023-05-17T12:09:05.513Z,1014.03
2023-05-17T12:11:38.942Z,1014.02
2023-05-17T12:14:12.018Z,1014.00
2023-05-17T12:16:45.076Z,1013.99
2023-05-17T12:19:18.122Z,1013.95
2023-05-17T12:21:51.160Z,1013.91
2023-05-17T12:24:24.236Z,1013.89
2023-05-17T12:27:02.784Z,1013.87
2023-05-17T12:29:35.979Z,1013.85
2023-05-17T12:32:08.999Z,1013.83
2023-05-17T12:34:41.983Z,1013.79
2023-05-17T12:37:15.028Z,1013.76
2023-05-17T12:39:48.106Z,1013.75
2023-05-17T12:42:21.070Z,1013.74
2023-05-17T12:44:54.047Z,1013.74
2023-05-17T12:47:26.970Z,1013.72
2023-05-17T12:49:59.875Z,1013.72
2023-05-17T12:52:33.076Z,1013.70
2023-05-17T12:55:05.996Z,1013.66
2023-05-17T12:57:39.002Z,1013.64
2023-05-17T13:00:12.124Z,1013.63
2023-05-17T13:02:45.245Z,1013.62
2023-05-17T13:05:18.048Z,1013.60
2023-05-17T13:07:50.929Z,1013.59
2023-05-17T13:10:24.137Z,1013.59
2023-05-17T13:12:57.149Z,1013.59
2023-05-17T13:15:30.362Z,1013.59
2023-05-17T13:18:03.016Z,1013.57
2023-05-17T13:20:36.012Z,1013.56
2023-05-17T13:23:09.189Z,1013.53
2023-05-17T13:25:42.355Z,1013.52
2023-05-17T13:28:15.071Z,1013.52
2023-05-17T13:30:48.258Z,1013.48
2023-05-17T13:33:21.540Z,1013.47
2023-05-17T13:35:55.388Z,1013.46
2023-05-17T13:38:28.044Z,1013.45
2023-05-17T13:41:01.318Z,1013.43
2023-05-17T13:43:34.081Z,1013.39
2023-05-17T13:46:06.965Z,1013.37
2023-05-17T13:48:42.626Z,1013.34
2023-05-17T13:51:17.227Z,1013.32
2023-05-17T13:53:50.346Z,1013.28
2023-05-17T13:56:23.113Z,1013.26
2023-05-17T13:58:56.283Z,1013.23
2023-05-17T14:01:29.289Z,1013.19
2023-05-17T14:04:02.337Z,1013.18
2023-05-17T14:06:35.162Z,1013.16
2023-05-17T14:09:08.039Z,1013.13
2023-05-17T14:11:41.140Z,1013.13
2023-05-17T14:14:14.528Z,1013.14
2023-05-17T14:16:48.289Z,1013.14
2023-05-17T14:19:21.419Z,1013.12
2023-05-17T14:21:54.196Z,1013.11
2023-05-17T14:24:27.166Z,1013.10
2023-05-17T14:27:00.343Z,1013.07
2023-05-17T14:29:33.497Z,1013.06
2023-05-17T14:32:07.070Z,1013.04
2023-05-17T14:34:40.190Z,1013.02
2023-05-17T14:37:17.126Z,1013.00
2023-05-17T14:40:05.445Z,1013.00
2023-05-17T14:42:23.266Z,1013.01
2023-05-17T14:44:56.168Z,1012.99
2023-05-17T14:47:29.376Z,1012.96
2023-05-17T14:50:02.323Z,1012.96
2023-05-17T14:52:35.476Z,1012.97
2023-05-17T14:55:08.342Z,1012.94
2023-05-17T14:57:41.412Z,1012.95
2023-05-17T15:00:14.351Z,1012.95
2023-05-17T15:02:47.458Z,1012.95
2023-05-17T15:05:20.417Z,1012.95
2023-05-17T15:07:57.282Z,1012.94
2023-05-17T15:10:30.369Z,1012.93
2023-05-17T15:13:03.416Z,1012.93
2023-05-17T15:15:36.173Z,1012.92
2023-05-17T15:18:09.170Z,1012.92
2023-05-17T15:20:42.251Z,1012.92
2023-05-17T15:23:15.220Z,1012.91
2023-05-17T15:25:48.454Z,1012.90
2023-05-17T15:28:21.467Z,1012.90
2023-05-17T15:30:54.276Z,1012.89
2023-05-17T15:33:27.278Z,1012.88
2023-05-17T15:36:00.264Z,1012.89
2023-05-17T15:38:33.229Z,1012.89
2023-05-17T15:41:06.133Z,1012.89
2023-05-17T15:43:39.485Z,1012.88
2023-05-17T15:46:12.327Z,1012.87
2023-05-17T15:48:45.389Z,1012.87
2023-05-17T15:51:18.278Z,1012.87
2023-05-17T15:53:51.297Z,1012.87
2023-05-17T15:56:24.187Z,1012.86
2023-05-17T15:58:57.450Z,1012.84
2023-05-17T16:01:30.254Z,1012.85
2023-05-17T16:04:03.558Z,1012.84
2023-05-17T16:06:36.408Z,1012.84
2023-05-17T16:09:09.204Z,1012.83
2023-05-17T16:11:42.322Z,1012.82
2023-05-17T16:14:15.454Z,1012.81
2023-05-17T16:16:48.314Z,1012.83
2023-05-17T16:19:21.597Z,1012.85
2023-05-17T16:21:54.402Z,1012.85
2023-05-17T16:24:41.373Z,1012.85
2023-05-17T16:27:14.183Z,1012.86
2023-05-17T16:29:47.381Z,1012.88
2023-05-17T16:32:20.382Z,1012.88
2023-05-17T16:34:53.354Z,1012.89
2023-05-17T16:37:26.380Z,1012.90
2023-05-17T16:39:59.413Z,1012.91
2023-05-17T16:42:32.339Z,1012.93
2023-05-17T16:45:07.733Z,1012.94
2023-05-17T16:47:38.421Z,1012.97
2023-05-17T16:50:14.475Z,1012.96
2023-05-17T16:52:47.363Z,1012.96
2023-05-17T16:55:20.346Z,1012.96
2023-05-17T16:57:53.547Z,1012.95
2023-05-17T17:00:26.490Z,1012.95
2023-05-17T17:02:59.422Z,1012.95
2023-05-17T17:05:32.402Z,1012.95
2023-05-17T17:08:05.284Z,1012.96
2023-05-17T17:10:38.460Z,1012.96
2023-05-17T17:13:11.256Z,1012.96
2023-05-17T17:15:44.689Z,1012.98
2023-05-17T17:18:17.346Z,1012.96
2023-05-17T17:20:50.429Z,1012.96
2023-05-17T17:23:23.526Z,1012.95
2023-05-17T17:25:56.567Z,1012.95
2023-05-17T17:28:29.570Z,1012.94
2023-05-17T17:31:02.556Z,1012.94
2023-05-17T17:33:35.694Z,1012.92
2023-05-17T17:36:08.404Z,1012.93
2023-05-17T17:38:41.405Z,1012.94
2023-05-17T17:41:14.349Z,1012.95
2023-05-17T17:43:47.627Z,1012.95
2023-05-17T17:46:23.660Z,1012.96
2023-05-17T17:48:56.987Z,1012.97
2023-05-17T17:51:29.586Z,1012.98
2023-05-17T17:54:02.518Z,1012.99
2023-05-17T17:56:35.458Z,1013.03
2023-05-17T17:59:08.484Z,1013.04
2023-05-17T18:01:41.600Z,1013.06
2023-05-17T18:04:14.409Z,1013.07
2023-05-17T18:06:47.553Z,1013.08
2023-05-17T18:09:20.536Z,1013.08
2023-05-17T18:11:53.580Z,1013.09
2023-05-17T18:14:26.559Z,1013.10
2023-05-17T18:16:59.564Z,1013.11
2023-05-17T18:19:32.536Z,1013.12
2023-05-17T18:22:05.436Z,1013.14
2023-05-17T18:24:38.604Z,1013.17
2023-05-17T18:27:11.472Z,1013.19
2023-05-17T18:29:45.522Z,1013.20
2023-05-17T18:32:18.658Z,1013.19
2023-05-17T18:34:51.636Z,1013.19
2023-05-17T18:37:24.727Z,1013.20
2023-05-17T18:39:57.643Z,1013.21
2023-05-17T18:42:30.573Z,1013.22
2023-05-17T18:45:03.386Z,1013.21
2023-05-17T18:47:36.573Z,1013.21
2023-05-17T18:50:23.415Z,1013.20
2023-05-17T18:52:57.338Z,1013.20
2023-05-17T18:55:29.774Z,1013.18
2023-05-17T18:58:02.550Z,1013.18
2023-05-17T19:00:35.586Z,1013.19
2023-05-17T19:03:08.568Z,1013.19
2023-05-17T19:05:41.559Z,1013.20
2023-05-17T19:08:14.441Z,1013.22
2023-05-17T19:10:47.533Z,1013.22
2023-05-17T19:13:20.466Z,1013.24
2023-05-17T19:15:53.477Z,1013.27
2023-05-17T19:18:26.633Z,1013.30
2023-05-17T19:20:59.590Z,1013.31
2023-05-17T19:23:32.452Z,1013.34
2023-05-17T19:26:05.472Z,1013.36
2023-05-17T19:28:38.768Z,1013.39
2023-05-17T19:31:11.456Z,1013.41
2023-05-17T19:33:44.566Z,1013.44
2023-05-17T19:36:31.603Z,1013.48
2023-05-17T19:39:04.695Z,1013.51
2023-05-17T19:41:37.791Z,1013.55
2023-05-17T19:44:12.513Z,1013.58
2023-05-17T19:46:45.752Z,1013.60
2023-05-17T19:49:18.521Z,1013.62
2023-05-17T19:51:51.529Z,1013.66
2023-05-17T19:54:24.477Z,1013.67
2023-05-17T19:56:57.641Z,1013.70
2023-05-17T19:59:30.650Z,1013.72
2023-05-17T20:02:03.581Z,1013.74
2023-05-17T20:04:36.630Z,1013.75
2023-05-17T20:07:09.774Z,1013.78
2023-05-17T20:09:42.747Z,1013.80
2023-05-17T20:12:15.634Z,1013.82
2023-05-17T20:14:48.639Z,1013.83
2023-05-17T20:17:21.540Z,1013.84
2023-05-17T20:19:54.677Z,1013.85
2023-05-17T20:22:27.548Z,1013.86
2023-05-17T20:25:00.716Z,1013.86
2023-05-17T20:27:33.684Z,1013.86
2023-05-17T20:30:06.555Z,1013.87
2023-05-17T20:32:39.733Z,1013.88
2023-05-17T20:35:12.760Z,1013.90
2023-05-17T20:37:45.654Z,1013.91
2023-05-17T20:40:18.598Z,1013.92
2023-05-17T20:42:52.578Z,1013.94
2023-05-17T20:45:25.564Z,1013.93
2023-05-17T20:48:01.835Z,1013.95
2023-05-17T20:50:34.696Z,1013.95
2023-05-17T20:53:07.578Z,1013.96
2023-05-17T20:55:54.687Z,1013.96
2023-05-17T20:58:27.896Z,1013.97
2023-05-17T21:01:01.041Z,1013.98
2023-05-17T21:03:34.107Z,1013.99
2023-05-17T21:06:06.714Z,1014.00
2023-05-17T21:08:39.691Z,1014.01
2023-05-17T21:11:12.780Z,1014.01
2023-05-17T21:13:45.937Z,1014.04
2023-05-17T21:16:18.879Z,1014.06
2023-05-17T21:18:52.018Z,1014.07
2023-05-17T21:21:24.887Z,1014.07
2023-05-17T21:23:57.754Z,1014.10
2023-05-17T21:26:30.992Z,1014.12
2023-05-17T21:29:03.865Z,1014.13
2023-05-17T21:31:36.951Z,1014.14
2023-05-17T21:34:09.859Z,1014.15
2023-05-17T21:36:48.892Z,1014.15
2023-05-17T21:39:21.906Z,1014.15
2023-05-17T21:42:08.952Z,1014.15
2023-05-17T21:44:41.751Z,1014.15
2023-05-17T21:47:15.159Z,1014.17
2023-05-17T21:49:49.092Z,1014.18
2023-05-17T21:52:22.948Z,1014.17
2023-05-17T21:54:55.969Z,1014.17
2023-05-17T21:57:28.666Z,1014.17
2023-05-17T22:00:02.012Z,1014.19
2023-05-17T22:02:35.127Z,1014.19
2023-05-17T22:05:07.784Z,1014.18
2023-05-17T22:07:41.082Z,1014.20
2023-05-17T22:10:13.787Z,1014.19
2023-05-17T22:12:47.162Z,1014.18
2023-05-17T22:15:21.039Z,1014.19
2023-05-17T22:18:08.101Z,1014.18
2023-05-17T22:20:41.023Z,1014.17
2023-05-17T22:23:14.168Z,1014.16
2023-05-17T22:25:48.140Z,1014.16
2023-05-17T22:28:21.037Z,1014.16
2023-05-17T22:30:54.098Z,1014.15
2023-05-17T22:33:26.968Z,1014.16
2023-05-17T22:36:00.009Z,1014.16
2023-05-17T22:38:33.011Z,1014.17
2023-05-17T22:41:06.056Z,1014.19
2023-05-17T22:43:39.350Z,1014.19
2023-05-17T22:46:13.070Z,1014.18
2023-05-17T22:48:46.202Z,1014.19
2023-05-17T22:51:20.144Z,1014.19
2023-05-17T22:53:53.065Z,1014.19
2023-05-17T22:56:25.887Z,1014.20
2023-05-17T22:58:59.336Z,1014.20
2023-05-17T23:01:33.138Z,1014.20
2023-05-17T23:04:06.135Z,1014.21
2023-05-17T23:06:39.120Z,1014.23
2023-05-17T23:09:11.891Z,1014.22
2023-05-17T23:11:44.855Z,1014.24
2023-05-17T23:14:18.124Z,1014.25
2023-05-17T23:16:51.098Z,1014.27
2023-05-17T23:19:24.299Z,1014.28
2023-05-17T23:21:58.148Z,1014.29
2023-05-17T23:24:31.127Z,1014.31
2023-05-17T23:27:04.152Z,1014.32
2023-05-17T23:29:36.827Z,1014.31
2023-05-17T23:32:10.175Z,1014.31
2023-05-17T23:34:43.157Z,1014.30
2023-05-17T23:37:16.146Z,1014.30
2023-05-17T23:39:49.059Z,1014.30
2023-05-17T23:42:22.116Z,1014.29
2023-05-17T23:44:55.349Z,1014.27
2023-05-17T23:47:29.131Z,1014.26
2023-05-17T23:50:02.325Z,1014.23
2023-05-17T23:52:35.827Z,1014.22
2023-05-17T23:55:09.012Z,1014.20
2023-05-17T23:57:42.151Z,1014.19
